Terminal Aerodrome Forecast
Issued by NWS

Home | Current Version | Previous Version | Text Only | Print | Product List | Glossary On
Versions: 1 2 3 4 5 6 7 8 9 10 11 12 13 14 15 16
286
FTUS46 KMTR 231720
TAFSNS
TAF
KSNS 231720Z 2318/2418 29010KT P6SM SKC
     FM232000 29014KT P6SM SKC
     FM240100 29008KT P6SM SCT012
     FM240300 29006KT P6SM BKN010
     FM240600 31004KT P6SM OVC007
      TEMPO 2410/2414 1/2SM FG OVC002
     FM241700 28004KT P6SM SKC=

USA.gov is the U.S. government's official web portal to all federal, state and local government web resources and services.